Time;durP1;ratioP1;P1;durP2;ratioP2;P2;SDS_P1;SDS_P2;PMS_P1;PMS_P2;Temp;Humidity;BMP_temperature;BMP_pressure;BME280_temperature;BME280_humidity;BME280_pressure;Samples;Min_cycle;Max_cycle;Signal;HPM_P1;HPM_P2
2022/08/23 00:00:19;;;;;;;10.65;3.85;;;24.90;89.10;;;;;;5035077;28;20258;-83
2022/08/23 00:02:50;;;;;;;9.20;4.13;;;24.80;89.10;;;;;;5035318;28;20195;-81
2022/08/23 00:05:21;;;;;;;9.70;3.88;;;24.80;89.10;;;;;;5035745;28;20198;-82
2022/08/23 00:07:49;;;;;;;10.30;3.92;;;24.80;89.20;;;;;;5034585;28;20203;-85
2022/08/23 00:10:23;;;;;;;7.80;4.32;;;24.80;89.40;;;;;;5036253;28;20199;-81
2022/08/23 00:12:51;;;;;;;8.95;4.32;;;24.80;89.40;;;;;;5035911;28;20184;-81
2022/08/23 00:15:20;;;;;;;11.60;4.18;;;24.80;89.50;;;;;;5039572;28;20206;-82
2022/08/23 00:17:50;;;;;;;9.82;4.13;;;24.70;89.40;;;;;;5032711;28;20203;-82
2022/08/23 00:24:18;;;;;;;5.50;3.40;;;24.70;89.70;;;;;;5028866;28;20225;-83
2022/08/23 00:26:58;;;;;;;10.73;3.78;;;24.60;89.50;;;;;;5030793;28;20283;-82
2022/08/23 00:29:35;;;;;;;9.50;3.72;;;24.60;89.70;;;;;;5038090;28;20656;-82
2022/08/23 00:32:09;;;;;;;7.38;3.92;;;24.60;89.70;;;;;;5034382;28;20192;-82
2022/08/23 00:34:55;;;;;;;7.95;4.18;;;24.60;89.70;;;;;;5034879;28;20191;-82
2022/08/23 00:37:25;;;;;;;6.75;3.40;;;24.60;89.90;;;;;;5035559;28;20205;-81
2022/08/23 00:39:55;;;;;;;9.70;3.58;;;24.60;90.00;;;;;;5037642;28;20259;-82
2022/08/23 00:48:13;;;;;;;6.63;3.72;;;24.50;90.00;;;;;;5037877;28;20199;-81
2022/08/23 00:50:49;;;;;;;6.03;3.88;;;24.50;90.00;;;;;;5035123;28;20183;-82
2022/08/23 00:53:21;;;;;;;8.85;3.83;;;24.50;90.10;;;;;;5034073;28;20190;-81
2022/08/23 00:55:54;;;;;;;11.05;3.95;;;24.50;90.10;;;;;;5035168;28;20194;-81
2022/08/23 00:58:28;;;;;;;11.02;3.63;;;24.40;90.20;;;;;;5035047;28;20930;-81
2022/08/23 01:01:03;;;;;;;10.57;4.30;;;24.40;90.20;;;;;;5035575;28;20202;-80
2022/08/23 01:03:34;;;;;;;6.82;3.95;;;24.40;90.20;;;;;;5038800;28;20196;-80
2022/08/23 01:06:13;;;;;;;7.70;4.25;;;24.40;90.20;;;;;;5034923;28;20190;-81
2022/08/23 01:08:45;;;;;;;10.20;4.05;;;24.40;90.20;;;;;;5039288;28;20187;-81
2022/08/23 01:11:22;;;;;;;8.82;4.03;;;24.40;90.30;;;;;;5036530;28;20191;-80
2022/08/23 01:13:54;;;;;;;13.05;4.40;;;24.30;90.40;;;;;;5038283;28;20222;-80
2022/08/23 01:16:28;;;;;;;7.68;4.05;;;24.30;90.40;;;;;;5031398;28;20564;-80
2022/08/23 01:18:57;;;;;;;9.00;4.07;;;24.30;90.40;;;;;;5038133;28;20206;-80
2022/08/23 01:21:38;;;;;;;7.55;3.97;;;24.30;90.40;;;;;;5030373;28;20309;-80
2022/08/23 01:24:16;;;;;;;9.90;4.82;;;24.30;90.50;;;;;;5034254;28;20195;-80
2022/08/23 01:27:05;;;;;;;8.10;3.90;;;24.30;90.50;;;;;;5032427;28;20577;-81
2022/08/23 01:29:34;;;;;;;11.63;4.03;;;24.30;90.40;;;;;;5037734;28;20689;-81
2022/08/23 01:32:03;;;;;;;12.00;4.38;;;24.30;90.40;;;;;;5036159;28;20688;-79
2022/08/23 01:34:32;;;;;;;8.80;3.88;;;24.30;90.40;;;;;;5035611;28;20258;-80
2022/08/23 01:37:06;;;;;;;9.93;4.10;;;24.30;90.50;;;;;;5029070;28;20262;-82
2022/08/23 01:39:36;;;;;;;7.55;4.32;;;24.30;90.80;;;;;;5037340;28;20204;-81
2022/08/23 01:42:06;;;;;;;10.18;4.30;;;24.30;90.60;;;;;;5031651;28;20195;-81
2022/08/23 01:44:35;;;;;;;9.13;4.70;;;24.20;90.50;;;;;;5039827;28;20226;-80
2022/08/23 01:47:05;;;;;;;8.88;4.18;;;24.20;90.60;;;;;;5035448;28;20682;-81
2022/08/23 01:49:34;;;;;;;8.52;3.97;;;24.20;90.60;;;;;;5035555;28;20199;-81
2022/08/23 01:52:03;;;;;;;9.93;4.22;;;24.20;90.60;;;;;;5039243;28;20204;-81
2022/08/23 01:54:32;;;;;;;9.10;4.40;;;24.20;90.70;;;;;;5032542;28;20189;-81
2022/08/23 01:57:05;;;;;;;9.25;4.70;;;24.20;90.80;;;;;;5032789;28;20221;-80
2022/08/23 01:59:34;;;;;;;10.02;4.40;;;24.20;90.80;;;;;;5033908;28;20863;-80
2022/08/23 02:02:04;;;;;;;8.80;4.18;;;24.10;90.80;;;;;;5037011;28;20703;-80
2022/08/23 02:04:33;;;;;;;14.07;4.88;;;24.10;90.80;;;;;;5032400;28;20262;-79
2022/08/23 02:07:01;;;;;;;9.68;4.53;;;24.10;90.80;;;;;;5033926;28;20195;-80
2022/08/23 02:09:30;;;;;;;11.20;5.30;;;24.10;90.80;;;;;;5038299;28;20204;-81
2022/08/23 02:12:00;;;;;;;7.47;4.32;;;24.10;90.80;;;;;;5032380;28;20217;-81
2022/08/23 02:14:40;;;;;;;11.98;5.13;;;24.10;90.80;;;;;;5039072;28;20179;-81
2022/08/23 02:17:09;;;;;;;8.90;4.75;;;24.00;90.90;;;;;;5032588;28;20601;-81
2022/08/23 02:19:39;;;;;;;8.45;4.68;;;24.00;90.90;;;;;;5037515;28;20202;-80
2022/08/23 02:22:11;;;;;;;8.80;5.03;;;24.00;90.80;;;;;;5037230;28;21327;-81
2022/08/23 02:24:42;;;;;;;7.78;4.05;;;24.00;90.90;;;;;;5034809;28;20699;-80
2022/08/23 02:27:13;;;;;;;8.45;4.38;;;24.00;90.90;;;;;;5037277;28;20824;-81
2022/08/23 02:29:46;;;;;;;8.93;4.22;;;24.00;90.90;;;;;;5028820;28;20669;-80
2022/08/23 02:32:18;;;;;;;8.32;4.50;;;24.00;90.90;;;;;;5028656;28;20286;-80
2022/08/23 02:34:47;;;;;;;9.90;5.22;;;24.00;90.90;;;;;;5034145;28;20564;-81
2022/08/23 02:37:34;;;;;;;10.55;5.22;;;24.00;90.90;;;;;;5033585;28;20315;-81
2022/08/23 02:40:04;;;;;;;13.88;5.50;;;24.00;91.00;;;;;;5034154;28;20195;-80
2022/08/23 02:42:32;;;;;;;11.15;4.82;;;23.90;91.00;;;;;;5034324;28;20191;-80
2022/08/23 02:45:08;;;;;;;11.30;4.78;;;23.90;90.90;;;;;;5037987;28;20187;-84
2022/08/23 02:47:38;;;;;;;13.82;5.40;;;23.90;91.00;;;;;;5036603;28;20294;-83
2022/08/23 02:50:20;;;;;;;11.05;5.15;;;24.00;91.00;;;;;;5032181;28;20201;-82
2022/08/23 02:52:54;;;;;;;13.07;5.53;;;23.90;91.00;;;;;;5036698;28;20341;-82
2022/08/23 02:55:23;;;;;;;11.35;5.55;;;23.90;91.00;;;;;;5035829;28;20195;-82
2022/08/23 02:57:52;;;;;;;8.75;4.75;;;23.90;91.00;;;;;;5037125;28;20239;-81
2022/08/23 03:00:23;;;;;;;11.18;5.65;;;23.90;91.00;;;;;;5038603;28;20281;-81
2022/08/23 03:02:52;;;;;;;12.10;5.78;;;23.90;91.00;;;;;;5038650;28;20197;-80
2022/08/23 03:05:34;;;;;;;10.75;5.38;;;23.90;91.00;;;;;;5042098;28;20201;-82
2022/08/23 03:08:02;;;;;;;15.23;5.85;;;23.90;91.10;;;;;;5043115;28;20214;-80
2022/08/23 03:10:35;;;;;;;11.20;5.82;;;23.80;91.00;;;;;;5045494;28;20199;-82
2022/08/23 03:13:04;;;;;;;13.38;5.93;;;23.80;91.00;;;;;;5040408;28;20767;-80
2022/08/23 03:15:34;;;;;;;11.48;6.10;;;23.80;91.10;;;;;;5037022;28;20719;-81
2022/08/23 03:18:03;;;;;;;11.07;6.03;;;23.80;91.10;;;;;;5038205;28;20203;-81
2022/08/23 03:20:37;;;;;;;10.63;5.43;;;23.80;91.10;;;;;;5038473;28;20222;-82
2022/08/23 03:23:05;;;;;;;10.70;5.78;;;23.80;91.10;;;;;;5037693;28;20685;-80
2022/08/23 03:25:34;;;;;;;12.48;5.45;;;23.80;91.10;;;;;;5032905;28;20191;-82
2022/08/23 03:28:04;;;;;;;11.40;5.85;;;23.80;91.10;;;;;;5034849;28;20641;-82
2022/08/23 03:30:34;;;;;;;11.80;5.18;;;23.80;91.10;;;;;;5043879;28;20677;-81
2022/08/23 03:33:03;;;;;;;16.50;5.85;;;23.80;91.20;;;;;;5034693;28;21018;-81
2022/08/23 03:35:32;;;;;;;19.45;6.68;;;23.80;91.20;;;;;;5036854;28;20211;-81
2022/08/23 03:38:12;;;;;;;16.20;5.32;;;23.80;91.30;;;;;;5036279;28;20684;-81
2022/08/23 03:40:52;;;;;;;14.18;5.68;;;23.80;91.30;;;;;;5032662;28;20203;-84
2022/08/23 03:43:22;;;;;;;11.13;5.72;;;23.80;91.30;;;;;;5038285;28;20230;-80
2022/08/23 03:45:52;;;;;;;14.15;5.97;;;23.70;91.30;;;;;;5036585;28;20785;-80
2022/08/23 03:48:20;;;;;;;12.23;6.22;;;23.80;91.40;;;;;;5033891;28;20732;-81
2022/08/23 03:50:57;;;;;;;12.55;6.03;;;23.70;91.30;;;;;;5041082;28;20305;-82
2022/08/23 03:53:26;;;;;;;11.35;6.38;;;23.80;91.40;;;;;;5039690;28;20195;-83
2022/08/23 03:55:55;;;;;;;11.48;5.32;;;23.80;91.40;;;;;;5032288;28;20199;-81
2022/08/23 03:58:28;;;;;;;10.50;5.22;;;23.80;91.50;;;;;;5038511;28;20326;-81
2022/08/23 04:00:58;;;;;;;18.55;5.90;;;23.80;91.50;;;;;;5035248;28;20202;-80
2022/08/23 04:03:36;;;;;;;13.95;5.60;;;23.80;91.90;;;;;;5035260;28;20202;-80
2022/08/23 04:06:06;;;;;;;11.95;5.50;;;23.80;91.50;;;;;;5041388;28;20191;-81
2022/08/23 04:08:44;;;;;;;9.65;5.53;;;23.80;91.60;;;;;;5031954;28;20214;-81
2022/08/23 04:11:13;;;;;;;10.82;5.60;;;23.80;91.60;;;;;;5038859;28;20702;-80
2022/08/23 04:13:42;;;;;;;21.33;6.70;;;23.80;91.60;;;;;;5032008;28;20199;-83
2022/08/23 04:16:12;;;;;;;16.00;5.82;;;23.90;91.60;;;;;;5038521;28;20199;-80
2022/08/23 04:18:41;;;;;;;14.00;5.53;;;23.90;91.70;;;;;;5033188;28;20205;-81
2022/08/23 04:21:13;;;;;;;12.45;6.32;;;23.90;91.70;;;;;;5038077;28;20199;-82
2022/08/23 04:23:42;;;;;;;13.27;5.63;;;23.90;91.70;;;;;;5034714;28;20307;-80
2022/08/23 04:26:11;;;;;;;14.52;5.80;;;23.90;91.80;;;;;;5034318;28;20203;-81
2022/08/23 04:28:40;;;;;;;9.68;4.68;;;23.90;92.00;;;;;;5035095;28;20731;-80
2022/08/23 04:31:09;;;;;;;9.45;5.28;;;24.00;92.00;;;;;;5039719;28;20198;-80
2022/08/23 04:33:39;;;;;;;12.85;5.40;;;24.00;92.20;;;;;;5040776;28;20195;-82
2022/08/23 04:36:26;;;;;;;13.10;4.97;;;24.00;92.20;;;;;;5040131;28;20188;-81
2022/08/23 04:39:01;;;;;;;8.10;4.28;;;24.00;92.20;;;;;;5033832;28;20202;-80
2022/08/23 04:44:24;;;;;;;13.13;5.05;;;24.20;92.30;;;;;;5041777;28;20199;-81
2022/08/23 04:46:53;;;;;;;14.30;5.13;;;24.20;92.40;;;;;;5036500;28;20205;-82
2022/08/23 04:49:23;;;;;;;15.98;5.18;;;24.20;92.50;;;;;;5031421;28;20745;-81
2022/08/23 04:51:55;;;;;;;13.05;3.88;;;24.20;92.50;;;;;;5037143;28;20198;-82
2022/08/23 04:54:23;;;;;;;16.23;3.92;;;24.30;92.50;;;;;;5035754;28;20675;-82
2022/08/23 04:56:52;;;;;;;5.90;3.28;;;24.40;92.40;;;;;;5038753;28;20218;-81
2022/08/23 04:59:21;;;;;;;13.00;3.15;;;24.40;92.40;;;;;;5043226;28;20696;-81
2022/08/23 05:01:50;;;;;;;12.02;3.63;;;24.50;92.30;;;;;;5041348;28;20750;-81
2022/08/23 05:04:19;;;;;;;10.98;3.13;;;24.60;92.30;;;;;;5043489;28;21248;-80
2022/08/23 05:06:50;;;;;;;13.98;4.32;;;24.60;92.10;;;;;;5044827;28;20922;-80
2022/08/23 05:09:19;;;;;;;7.20;3.22;;;24.70;92.00;;;;;;4987876;28;20223;-80
2022/08/23 05:11:48;;;;;;;8.02;2.97;;;24.70;91.90;;;;;;5040085;28;20653;-81
2022/08/23 05:14:16;;;;;;;11.15;3.55;;;24.80;91.80;;;;;;5041490;28;20206;-80
2022/08/23 05:16:45;;;;;;;10.32;3.55;;;24.80;91.70;;;;;;5035013;28;20202;-84
2022/08/23 05:19:14;;;;;;;9.95;3.42;;;24.80;91.50;;;;;;5038223;28;20198;-77
2022/08/23 05:21:42;;;;;;;9.13;3.33;;;24.90;91.50;;;;;;5039008;28;20206;-78
2022/08/23 05:24:12;;;;;;;10.27;3.63;;;25.00;91.40;;;;;;5039573;28;20199;-80
2022/08/23 05:26:43;;;;;;;10.80;3.13;;;25.00;91.20;;;;;;5044682;28;21260;-81
2022/08/23 05:29:12;;;;;;;7.90;3.05;;;25.00;91.10;;;;;;5035320;28;20199;-83
2022/08/23 05:31:40;;;;;;;8.30;3.10;;;25.10;91.10;;;;;;5036448;28;20191;-81
2022/08/23 05:34:09;;;;;;;7.43;3.55;;;25.20;91.00;;;;;;5038035;28;20210;-80
2022/08/23 05:36:39;;;;;;;9.00;3.10;;;25.20;91.00;;;;;;5034779;28;20260;-81
2022/08/23 05:39:24;;;;;;;11.00;4.13;;;25.20;90.90;;;;;;5037222;28;20184;-80
2022/08/23 05:42:03;;;;;;;9.60;2.90;;;25.30;90.90;;;;;;5033358;28;20229;-80
2022/08/23 05:44:32;;;;;;;6.22;2.65;;;25.30;90.50;;;;;;5039888;28;20210;-78
2022/08/23 05:47:05;;;;;;;8.25;3.15;;;25.30;90.40;;;;;;5042209;28;20221;-82
2022/08/23 05:49:39;;;;;;;9.60;3.17;;;25.40;90.50;;;;;;5039538;28;20734;-78
2022/08/23 05:52:10;;;;;;;12.57;4.47;;;25.40;90.30;;;;;;5039023;28;20555;-78
2022/08/23 05:54:40;;;;;;;9.45;3.20;;;25.40;90.20;;;;;;5039206;28;20195;-78
2022/08/23 05:57:10;;;;;;;11.27;4.00;;;25.50;90.30;;;;;;5031293;28;20222;-84
2022/08/23 05:59:42;;;;;;;11.48;3.75;;;25.60;90.30;;;;;;5020021;28;20192;-82
2022/08/23 06:02:13;;;;;;;10.93;4.28;;;25.60;90.20;;;;;;5018083;28;20270;-81
2022/08/23 06:08:38;;;;;;;10.32;3.80;;;25.70;90.10;;;;;;5349532;23;20299;-76
2022/08/23 06:11:11;;;;;;;11.77;3.40;;;25.70;90.00;;;;;;5014786;28;20188;-76
2022/08/23 06:13:42;;;;;;;11.73;3.42;;;25.70;90.00;;;;;;5016825;28;20785;-78
2022/08/23 06:16:12;;;;;;;7.38;3.08;;;25.80;90.00;;;;;;5015648;28;20191;-77
2022/08/23 06:18:43;;;;;;;11.98;3.30;;;25.80;90.00;;;;;;5016038;28;20183;-76
2022/08/23 06:21:13;;;;;;;14.73;3.25;;;25.90;90.00;;;;;;5022696;28;20193;-75
2022/08/23 06:23:45;;;;;;;10.93;3.65;;;26.00;90.00;;;;;;5021376;28;20216;-77
2022/08/23 06:26:17;;;;;;;11.45;2.75;;;26.00;90.00;;;;;;5019064;28;20294;-78
2022/08/23 06:28:47;;;;;;;21.48;3.97;;;26.10;90.00;;;;;;5025454;28;20199;-77
2022/08/23 06:31:44;;;;;;;17.95;3.20;;;26.20;89.90;;;;;;5019378;28;20847;-78
2022/08/23 06:34:08;;;;;;;9.20;3.15;;;26.30;89.90;;;;;;5022605;28;20192;-77
2022/08/23 06:36:37;;;;;;;13.52;3.22;;;26.30;89.70;;;;;;5022353;28;20258;-78
2022/08/23 06:39:06;;;;;;;8.13;3.40;;;26.40;89.70;;;;;;5024670;28;20657;-78
2022/08/23 06:41:36;;;;;;;7.80;3.20;;;26.50;89.60;;;;;;5021356;28;20570;-77
2022/08/23 06:44:06;;;;;;;10.20;3.83;;;26.50;89.20;;;;;;5018942;28;20219;-79
2022/08/23 06:46:37;;;;;;;10.73;3.17;;;26.60;89.00;;;;;;5021230;28;20192;-79
2022/08/23 06:49:07;;;;;;;13.95;3.75;;;26.70;88.80;;;;;;5020669;28;20187;-78
2022/08/23 06:51:37;;;;;;;8.57;3.22;;;26.70;88.80;;;;;;5021520;28;20204;-76
2022/08/23 06:54:08;;;;;;;11.35;3.88;;;26.80;88.90;;;;;;5029427;28;20194;-77
2022/08/23 06:56:39;;;;;;;12.15;3.40;;;26.90;88.80;;;;;;5021535;28;20188;-78
2022/08/23 06:59:08;;;;;;;10.55;3.17;;;26.90;88.70;;;;;;5017938;28;20771;-78
2022/08/23 07:01:41;;;;;;;8.27;3.10;;;27.00;88.80;;;;;;5021980;28;20202;-77
2022/08/23 07:04:18;;;;;;;13.40;3.38;;;27.10;88.80;;;;;;5014433;28;20235;-79
2022/08/23 07:06:47;;;;;;;11.25;3.28;;;27.20;88.80;;;;;;5020794;28;20196;-75
2022/08/23 07:09:17;;;;;;;15.07;3.67;;;27.20;88.50;;;;;;5021345;28;20220;-76
2022/08/23 07:11:47;;;;;;;12.20;3.00;;;27.30;88.40;;;;;;5021280;28;20206;-77
2022/08/23 07:14:17;;;;;;;15.65;3.67;;;27.40;88.30;;;;;;5021257;28;20421;-80
2022/08/23 07:16:49;;;;;;;7.88;3.35;;;27.40;88.00;;;;;;5023453;28;20196;-78
2022/08/23 07:19:21;;;;;;;11.43;3.65;;;27.40;87.70;;;;;;5027528;28;20194;-75
2022/08/23 07:21:56;;;;;;;7.93;3.15;;;27.50;87.30;;;;;;5017386;28;20761;-76
2022/08/23 07:24:25;;;;;;;8.82;3.28;;;27.50;87.30;;;;;;5021738;28;20622;-77
2022/08/23 07:27:05;;;;;;;12.02;3.75;;;27.50;86.90;;;;;;5020384;28;20210;-76
2022/08/23 07:29:36;;;;;;;9.75;3.90;;;27.60;86.80;;;;;;5012573;28;20195;-75
2022/08/23 07:32:04;;;;;;;12.27;3.95;;;27.60;86.60;;;;;;5019831;28;20299;-76
2022/08/23 07:34:33;;;;;;;17.65;3.85;;;27.60;86.50;;;;;;5021085;28;20665;-77
2022/08/23 07:37:02;;;;;;;11.65;3.40;;;27.60;86.60;;;;;;5018555;28;20598;-76
2022/08/23 07:39:38;;;;;;;15.48;3.78;;;27.70;86.60;;;;;;5019586;28;20192;-76
2022/08/23 07:42:09;;;;;;;9.45;3.38;;;27.70;86.60;;;;;;5015468;28;20188;-75
2022/08/23 07:44:52;;;;;;;15.55;3.58;;;27.80;86.70;;;;;;5021540;28;20215;-77
2022/08/23 07:47:21;;;;;;;13.25;3.70;;;27.80;86.30;;;;;;5018152;28;20211;-76
2022/08/23 07:49:49;;;;;;;14.35;3.67;;;27.80;86.30;;;;;;5012730;28;20219;-74
2022/08/23 07:52:18;;;;;;;16.90;4.35;;;27.90;86.40;;;;;;5015241;28;20192;-77
2022/08/23 07:54:47;;;;;;;22.33;4.28;;;27.90;86.30;;;;;;5016778;28;20197;-77
2022/08/23 07:57:18;;;;;;;11.73;3.58;;;27.90;86.00;;;;;;5017240;28;20222;-76
2022/08/23 07:59:47;;;;;;;11.80;3.90;;;28.00;86.10;;;;;;5019372;28;20219;-76
2022/08/23 08:02:16;;;;;;;16.88;4.20;;;28.00;86.10;;;;;;5012430;28;20192;-76
2022/08/23 08:04:44;;;;;;;13.65;3.97;;;28.10;86.00;;;;;;5009994;28;20590;-80
2022/08/23 08:07:13;;;;;;;8.65;3.60;;;28.10;85.80;;;;;;5019382;28;20231;-75
2022/08/23 08:09:48;;;;;;;8.15;3.35;;;28.20;85.80;;;;;;5014645;28;20310;-77
2022/08/23 08:12:18;;;;;;;10.77;3.75;;;28.20;85.60;;;;;;5019685;28;20196;-78
2022/08/23 08:14:47;;;;;;;8.02;3.20;;;28.30;85.50;;;;;;5020699;28;20195;-78
2022/08/23 08:17:17;;;;;;;7.53;3.70;;;28.30;85.20;;;;;;5011322;28;20849;-78
2022/08/23 08:19:45;;;;;;;13.35;3.67;;;28.40;85.10;;;;;;5016201;28;20532;-78
2022/08/23 08:22:14;;;;;;;11.98;3.70;;;28.40;84.50;;;;;;5014173;28;20200;-78
2022/08/23 08:24:43;;;;;;;9.07;3.25;;;28.50;84.40;;;;;;5017971;28;20227;-79
2022/08/23 08:27:11;;;;;;;11.95;3.55;;;28.50;84.40;;;;;;5017015;28;20641;-77
2022/08/23 08:29:42;;;;;;;8.27;3.55;;;28.50;84.30;;;;;;5013121;28;20752;-77
2022/08/23 08:32:11;;;;;;;11.85;3.63;;;28.60;83.90;;;;;;5019502;28;20301;-77
2022/08/23 08:34:41;;;;;;;10.43;3.03;;;28.60;83.30;;;;;;5018856;28;20294;-78
2022/08/23 08:37:10;;;;;;;9.38;3.40;;;28.70;83.50;;;;;;5010306;28;20191;-78
2022/08/23 08:39:45;;;;;;;8.02;3.33;;;28.70;83.60;;;;;;5019234;28;20202;-81
2022/08/23 08:42:32;;;;;;;10.55;3.58;;;28.80;83.30;;;;;;5020250;28;20195;-78
2022/08/23 08:45:09;;;;;;;9.50;3.33;;;28.80;83.00;;;;;;5017409;28;20227;-77
2022/08/23 08:47:43;;;;;;;11.32;3.63;;;28.90;82.90;;;;;;5016217;28;20344;-77
2022/08/23 08:50:23;;;;;;;9.73;3.15;;;28.90;82.70;;;;;;5021104;28;20187;-78
2022/08/23 08:53:01;;;;;;;13.05;3.08;;;28.90;82.50;;;;;;5015046;28;20257;-80
2022/08/23 08:55:34;;;;;;;9.10;3.78;;;29.00;82.60;;;;;;5021872;28;20183;-79
2022/08/23 08:58:04;;;;;;;18.05;3.95;;;29.00;81.50;;;;;;5013785;28;20200;-80
2022/08/23 09:00:38;;;;;;;7.57;3.13;;;29.00;80.80;;;;;;5017328;28;20200;-77
2022/08/23 09:03:13;;;;;;;11.90;3.65;;;29.10;81.40;;;;;;5019795;28;20199;-78
2022/08/23 09:05:55;;;;;;;17.67;3.70;;;29.10;81.60;;;;;;5018115;28;20219;-78
2022/08/23 09:08:37;;;;;;;10.10;3.10;;;29.20;81.70;;;;;;5015438;28;20231;-79
2022/08/23 09:11:15;;;;;;;11.82;3.88;;;29.30;81.80;;;;;;5011201;28;20207;-78
2022/08/23 09:14:24;;;;;;;16.02;3.00;;;29.40;81.80;;;;;;5015238;28;20191;-79
2022/08/23 09:17:04;;;;;;;15.75;3.50;;;29.50;81.50;;;;;;5015709;28;20541;-79
2022/08/23 09:19:37;;;;;;;10.98;3.47;;;29.50;80.70;;;;;;5015879;28;20288;-78
2022/08/23 09:22:12;;;;;;;11.07;4.03;;;29.60;80.60;;;;;;5022254;28;20229;-83
2022/08/23 09:24:41;;;;;;;11.73;3.78;;;29.60;80.40;;;;;;5010850;28;20212;-78
2022/08/23 09:27:10;;;;;;;10.30;3.30;;;29.70;79.50;;;;;;5015192;28;20188;-79
2022/08/23 09:29:50;;;;;;;17.15;3.60;;;29.70;79.40;;;;;;5013603;28;20195;-79
2022/08/23 09:32:30;;;;;;;18.92;3.47;;;29.80;79.60;;;;;;5022851;28;20199;-80
2022/08/23 09:35:14;;;;;;;10.63;3.80;;;29.80;79.20;;;;;;5017486;28;20192;-78
2022/08/23 09:37:58;;;;;;;11.77;3.00;;;29.90;78.80;;;;;;5015660;28;20184;-79
2022/08/23 09:40:33;;;;;;;12.80;3.13;;;29.90;78.80;;;;;;5014111;28;20194;-78
2022/08/23 09:43:16;;;;;;;10.23;2.90;;;30.00;78.40;;;;;;5016208;28;20183;-79
2022/08/23 09:45:56;;;;;;;14.45;3.72;;;30.00;77.90;;;;;;5018906;28;20661;-78
2022/08/23 09:48:37;;;;;;;11.60;3.47;;;30.00;77.40;;;;;;5009961;28;20199;-80
2022/08/23 09:51:16;;;;;;;12.93;3.30;;;30.10;77.20;;;;;;5008054;28;20207;-80
2022/08/23 09:53:50;;;;;;;16.08;3.75;;;30.10;76.50;;;;;;5018573;28;20188;-81
2022/08/23 09:56:24;;;;;;;14.32;3.92;;;30.20;76.60;;;;;;5017000;28;20200;-82
2022/08/23 09:58:53;;;;;;;10.43;3.38;;;30.30;76.30;;;;;;5015420;28;20190;-79
2022/08/23 10:01:24;;;;;;;12.60;3.67;;;30.30;76.10;;;;;;5009358;28;20193;-80
2022/08/23 10:04:11;;;;;;;16.30;3.28;;;30.30;76.40;;;;;;5016967;28;20195;-80
2022/08/23 10:06:40;;;;;;;11.05;3.85;;;30.40;76.80;;;;;;5014449;28;20653;-80
2022/08/23 10:09:10;;;;;;;11.25;3.40;;;30.40;76.60;;;;;;5010215;28;20219;-79
2022/08/23 10:11:43;;;;;;;15.45;3.55;;;30.50;76.70;;;;;;5008988;28;20195;-79
2022/08/23 10:14:17;;;;;;;15.27;2.92;;;30.50;76.10;;;;;;5018455;28;20195;-79
2022/08/23 10:16:57;;;;;;;8.15;3.80;;;30.50;75.80;;;;;;5012615;28;20203;-81
2022/08/23 10:19:35;;;;;;;10.65;3.03;;;30.60;76.20;;;;;;5007567;28;20202;-77
2022/08/23 10:22:11;;;;;;;11.02;3.15;;;30.60;75.90;;;;;;5011001;28;20199;-79
2022/08/23 10:24:46;;;;;;;8.88;3.60;;;30.60;75.60;;;;;;5013459;28;20216;-79
2022/08/23 10:30:16;;;;;;;9.45;3.35;;;30.60;75.30;;;;;;5018354;28;20223;-79
2022/08/23 10:32:58;;;;;;;11.93;3.10;;;30.60;74.30;;;;;;5016286;28;20192;-80
2022/08/23 10:35:43;;;;;;;16.13;3.45;;;30.60;73.90;;;;;;5019045;28;20194;-80
2022/08/23 10:38:33;;;;;;;6.35;2.55;;;30.70;74.20;;;;;;5019599;28;20202;-79
2022/08/23 10:41:11;;;;;;;10.40;3.08;;;30.80;74.20;;;;;;5014949;28;20196;-78
2022/08/23 10:43:47;;;;;;;12.32;3.08;;;30.90;74.30;;;;;;5019023;28;20198;-78
2022/08/23 10:46:15;;;;;;;12.30;4.05;;;30.90;74.10;;;;;;5020652;28;20846;-78
2022/08/23 10:48:50;;;;;;;7.80;3.47;;;31.00;74.00;;;;;;5022606;28;20200;-79
2022/08/23 10:51:24;;;;;;;13.93;3.47;;;31.10;73.40;;;;;;5015753;28;20212;-79
2022/08/23 10:54:06;;;;;;;12.68;3.38;;;31.20;72.70;;;;;;5018116;28;20188;-80
2022/08/23 10:56:35;;;;;;;12.60;3.85;;;31.20;73.00;;;;;;5018481;28;20199;-80
2022/08/23 10:59:15;;;;;;;9.68;3.15;;;31.30;72.90;;;;;;5017094;28;20191;-79
2022/08/23 11:01:50;;;;;;;15.75;6.30;;;31.40;73.00;;;;;;5018960;28;20287;-81
2022/08/23 11:04:29;;;;;;;11.25;3.70;;;31.50;73.00;;;;;;5017781;28;20528;-79
2022/08/23 11:07:01;;;;;;;12.10;4.18;;;31.60;73.10;;;;;;5015035;28;20564;-80
2022/08/23 11:09:50;;;;;;;14.32;3.50;;;31.70;72.40;;;;;;5016857;28;20968;-78
2022/08/23 11:12:24;;;;;;;14.07;2.95;;;31.70;71.60;;;;;;5018170;28;20227;-79
2022/08/23 11:15:14;;;;;;;10.65;4.22;;;31.70;71.70;;;;;;5022303;28;20208;-78
2022/08/23 11:17:56;;;;;;;9.23;3.70;;;31.70;71.30;;;;;;5012047;28;20902;-79
2022/08/23 11:20:59;;;;;;;14.70;3.53;;;31.70;71.30;;;;;;5022039;28;20201;-81
2022/08/23 11:24:00;;;;;;;14.82;3.60;;;31.80;71.10;;;;;;5009112;28;20210;-79
2022/08/23 11:27:05;;;;;;;11.18;3.05;;;31.90;70.40;;;;;;4976067;28;22099;-78
2022/08/23 11:29:38;;;;;;;10.35;3.78;;;31.80;69.70;;;;;;5011954;28;20196;-84
2022/08/23 11:32:40;;;;;;;9.65;3.35;;;31.80;69.70;;;;;;5017290;28;20376;-82
2022/08/23 11:35:39;;;;;;;14.15;3.70;;;31.80;69.30;;;;;;5017382;28;20451;-81
2022/08/23 11:38:12;;;;;;;10.52;3.53;;;31.80;69.70;;;;;;5015532;28;20278;-80
2022/08/23 11:41:00;;;;;;;17.17;3.40;;;31.80;69.60;;;;;;5026730;28;20210;-79
2022/08/23 11:43:33;;;;;;;7.88;3.35;;;31.80;68.90;;;;;;5018576;28;20227;-79
2022/08/23 11:46:31;;;;;;;11.00;3.13;;;31.80;69.30;;;;;;5015157;28;20220;-83
2022/08/23 11:49:18;;;;;;;10.25;3.60;;;31.80;69.40;;;;;;5015609;28;20201;-80
2022/08/23 11:51:57;;;;;;;7.40;3.63;;;31.80;68.60;;;;;;5016502;28;20698;-82
2022/08/23 11:54:40;;;;;;;7.22;3.28;;;31.80;68.80;;;;;;5011928;28;20681;-81
2022/08/23 11:57:31;;;;;;;9.38;3.40;;;31.80;69.00;;;;;;5017719;28;20273;-80
2022/08/23 12:00:17;;;;;;;10.55;3.78;;;31.90;69.40;;;;;;5016065;28;20199;-80
2022/08/23 12:03:04;;;;;;;8.75;3.30;;;31.80;69.40;;;;;;5016708;28;20295;-80
2022/08/23 12:06:22;;;;;;;17.52;4.03;;;31.80;69.50;;;;;;5020320;28;20290;-80
2022/08/23 12:08:59;;;;;;;16.15;3.47;;;31.80;69.00;;;;;;5021656;28;20223;-83
2022/08/23 12:12:01;;;;;;;12.15;3.72;;;31.80;69.40;;;;;;5018816;28;20285;-80
2022/08/23 12:14:36;;;;;;;10.57;3.63;;;31.80;69.60;;;;;;5009645;28;20211;-81
2022/08/23 12:17:47;;;;;;;9.07;3.90;;;31.80;69.90;;;;;;5017298;28;20634;-81
2022/08/23 12:20:28;;;;;;;12.95;3.10;;;31.90;70.20;;;;;;5017304;28;20235;-81
2022/08/23 12:23:11;;;;;;;12.02;4.25;;;31.90;70.20;;;;;;5015144;28;20224;-81
2022/08/23 12:25:41;;;;;;;11.68;3.60;;;32.00;69.90;;;;;;5009675;28;20319;-81
2022/08/23 12:28:33;;;;;;;12.48;3.50;;;32.00;70.00;;;;;;5011007;28;20200;-81
2022/08/23 12:31:13;;;;;;;15.15;4.30;;;32.00;69.70;;;;;;5022312;28;20229;-80
2022/08/23 12:33:54;;;;;;;6.22;3.35;;;32.10;69.80;;;;;;5020856;28;20215;-83
2022/08/23 12:36:30;;;;;;;10.73;3.92;;;32.10;69.80;;;;;;5016892;28;20767;-79
2022/08/23 12:39:03;;;;;;;9.02;3.85;;;32.10;69.60;;;;;;5014868;28;20199;-79
2022/08/23 12:41:48;;;;;;;16.17;4.35;;;32.20;69.80;;;;;;5013344;28;20301;-80
2022/08/23 12:44:19;;;;;;;9.43;3.90;;;32.20;69.40;;;;;;5017476;28;20227;-79
2022/08/23 12:46:50;;;;;;;12.70;3.97;;;32.20;69.40;;;;;;5019556;28;20223;-81
2022/08/23 12:49:30;;;;;;;11.15;4.35;;;32.20;69.20;;;;;;5019481;28;20944;-79
2022/08/23 12:52:12;;;;;;;10.90;4.43;;;32.40;68.30;;;;;;4979030;28;20210;-81
2022/08/23 12:54:45;;;;;;;10.27;3.75;;;32.40;68.80;;;;;;5015686;28;20228;-79
2022/08/23 12:57:21;;;;;;;10.10;5.00;;;32.40;69.00;;;;;;5009980;28;20669;-82
2022/08/23 12:59:58;;;;;;;14.80;4.35;;;32.40;68.90;;;;;;5020890;28;20285;-78
2022/08/23 13:02:53;;;;;;;10.63;4.40;;;32.40;68.90;;;;;;5012437;28;21456;-78
2022/08/23 13:05:37;;;;;;;12.45;3.78;;;32.50;69.00;;;;;;5011760;28;20627;-81
2022/08/23 13:08:10;;;;;;;13.43;3.88;;;32.60;68.80;;;;;;5015339;28;20226;-78
2022/08/23 13:10:42;;;;;;;11.35;4.40;;;32.60;68.10;;;;;;5013616;28;20258;-80
2022/08/23 13:13:13;;;;;;;7.28;4.03;;;32.60;67.70;;;;;;5017515;28;20677;-83
2022/08/23 13:15:53;;;;;;;10.80;4.28;;;32.70;67.60;;;;;;5020595;28;20287;-81
2022/08/23 13:18:33;;;;;;;11.48;4.32;;;32.70;66.80;;;;;;5011944;28;20221;-81
2022/08/23 13:21:25;;;;;;;13.07;3.25;;;32.70;66.90;;;;;;5013093;28;20200;-81
2022/08/23 13:23:57;;;;;;;8.25;3.28;;;32.70;66.60;;;;;;5013320;28;20187;-80
2022/08/23 13:26:40;;;;;;;8.10;3.55;;;32.70;66.70;;;;;;5019916;28;20216;-83
2022/08/23 13:29:12;;;;;;;9.57;3.00;;;32.80;65.10;;;;;;5016215;28;20183;-80
2022/08/23 13:32:00;;;;;;;15.05;3.75;;;32.80;65.00;;;;;;5021517;28;20537;-81
2022/08/23 13:34:38;;;;;;;11.57;3.63;;;32.90;65.10;;;;;;5015626;28;20192;-79
2022/08/23 13:37:19;;;;;;;8.95;3.90;;;32.90;65.10;;;;;;5020509;28;20198;-79